sensor_id;sensor_type;location;lat;lon;timestamp;P1;P2;P0
68198;PMS7003;55021;51.554;17.044;2024-01-30T00:01:15;48.00;38.67;25.00
68198;PMS7003;55021;51.554;17.044;2024-01-30T00:31:27;59.75;43.50;28.50
68198;PMS7003;55021;51.554;17.044;2024-01-30T01:16:34;46.25;41.00;23.00
68198;PMS7003;55021;51.554;17.044;2024-01-30T02:47:15;51.25;39.00;20.50
68198;PMS7003;55021;51.554;17.044;2024-01-30T03:02:39;40.75;33.50;22.00
68198;PMS7003;55021;51.554;17.044;2024-01-30T03:17:41;40.67;32.00;23.67
68198;PMS7003;55021;51.554;17.044;2024-01-30T03:32:45;38.75;34.00;21.00
68198;PMS7003;55021;51.554;17.044;2024-01-30T05:48:56;41.25;37.75;22.50
68198;PMS7003;55021;51.554;17.044;2024-01-30T06:19:15;50.25;38.00;22.50
68198;PMS7003;55021;51.554;17.044;2024-01-30T06:34:40;71.00;51.00;34.00
68198;PMS7003;55021;51.554;17.044;2024-01-30T07:04:46;41.50;33.25;18.50
68198;PMS7003;55021;51.554;17.044;2024-01-30T07:19:48;41.75;33.50;24.00
68198;PMS7003;55021;51.554;17.044;2024-01-30T07:34:51;61.75;46.75;28.00
68198;PMS7003;55021;51.554;17.044;2024-01-30T08:04:55;42.50;36.25;22.50
68198;PMS7003;55021;51.554;17.044;2024-01-30T09:35:11;48.50;39.50;24.25
68198;PMS7003;55021;51.554;17.044;2024-01-30T09:50:14;61.00;45.25;29.25
68198;PMS7003;55021;51.554;17.044;2024-01-30T10:05:17;36.00;32.00;21.00
68198;PMS7003;55021;51.554;17.044;2024-01-30T10:35:23;30.75;26.25;15.00
68198;PMS7003;55021;51.554;17.044;2024-01-30T11:20:31;35.50;28.00;16.25
68198;PMS7003;55021;51.554;17.044;2024-01-30T12:05:40;46.75;35.50;20.00
68198;PMS7003;55021;51.554;17.044;2024-01-30T12:35:47;26.75;24.50;14.25
68198;PMS7003;55021;51.554;17.044;2024-01-30T13:05:52;23.25;21.25;14.50
68198;PMS7003;55021;51.554;17.044;2024-01-30T13:35:56;26.25;21.00;12.00
68198;PMS7003;55021;51.554;17.044;2024-01-30T14:06:02;33.50;29.75;20.50
68198;PMS7003;55021;51.554;17.044;2024-01-30T14:36:07;25.25;20.75;14.00
68198;PMS7003;55021;51.554;17.044;2024-01-30T15:06:14;34.75;29.75;19.25
68198;PMS7003;55021;51.554;17.044;2024-01-30T15:36:19;39.75;37.00;24.00
68198;PMS7003;55021;51.554;17.044;2024-01-30T16:06:23;59.50;45.00;29.25
68198;PMS7003;55021;51.554;17.044;2024-01-30T16:51:30;88.00;64.50;42.25
68198;PMS7003;55021;51.554;17.044;2024-01-30T17:36:37;100.00;80.33;49.00
68198;PMS7003;55021;51.554;17.044;2024-01-30T17:51:40;72.33;54.67;36.33
68198;PMS7003;55021;51.554;17.044;2024-01-30T18:21:45;68.50;52.25;33.00
68198;PMS7003;55021;51.554;17.044;2024-01-30T19:06:53;56.25;42.75;26.00
68198;PMS7003;55021;51.554;17.044;2024-01-30T19:51:59;57.75;43.25;26.75
68198;PMS7003;55021;51.554;17.044;2024-01-30T20:22:04;65.75;46.75;28.75
68198;PMS7003;55021;51.554;17.044;2024-01-30T21:07:14;53.50;45.75;29.00
68198;PMS7003;55021;51.554;17.044;2024-01-30T21:37:19;55.75;43.00;28.75
68198;PMS7003;55021;51.554;17.044;2024-01-30T22:07:24;65.25;47.00;29.75
68198;PMS7003;55021;51.554;17.044;2024-01-30T22:37:29;51.00;44.25;29.00
68198;PMS7003;55021;51.554;17.044;2024-01-30T23:07:34;59.00;46.50;30.75
68198;PMS7003;55021;51.554;17.044;2024-01-30T23:37:39;58.25;45.50;29.00
